ENSO/SRP METAR and TAF weather

Enter ICAO airport designator
Station Type Date Time Source
ENSO METAR 2019/07/19 15:20 UTC NOAA

ENSO 191520Z 20008KT 150V240 9999 FEW035 19/11 Q1010


Station Type Date Time Source
ENSO Decoded METAR 2019/07/19 15:20 UTC NOAA

Stord / Soerstokken, Norway (ENSO) 59-48N 005-21E
Jul 19, 2019 - 11:20 AM EDT / 2019.07.19 1520 UTC
Wind: from the SSW (200 degrees) at 9 MPH (8 KT) (direction variable):0
Visibility: greater than 7 mile(s):0
Sky conditions: mostly clear
Temperature: 66 F (19 C)
Dew Point: 51 F (11 C)
Relative Humidity: 59%
Pressure (altimeter): 29.83 in. Hg (1010 hPa)
ob: ENSO 191520Z 20008KT 150V240 9999 FEW035 19/11 Q1010
cycle: 15

Station Type Date Time Source
ENSO TAF UTC NOAA

Error!

Example: see airport list